sensor_id;sensor_type;location;lat;lon;timestamp;temperature;humidity
22161;DHT22;49035;48.812;11.762;2023-11-21T00:02:06;6.10;99.90
22161;DHT22;49035;48.812;11.762;2023-11-21T00:04:32;6.10;99.90
22161;DHT22;49035;48.812;11.762;2023-11-21T00:06:57;6.10;99.90
22161;DHT22;49035;48.812;11.762;2023-11-21T00:09:23;6.20;99.90
22161;DHT22;49035;48.812;11.762;2023-11-21T00:11:48;6.20;99.90
22161;DHT22;49035;48.812;11.762;2023-11-21T00:14:14;6.10;99.90
22161;DHT22;49035;48.812;11.762;2023-11-21T00:16:43;6.10;99.90
22161;DHT22;49035;48.812;11.762;2023-11-21T00:19:08;6.10;99.90
22161;DHT22;49035;48.812;11.762;2023-11-21T00:21:34;6.10;99.90
22161;DHT22;49035;48.812;11.762;2023-11-21T00:24:00;6.10;99.90
22161;DHT22;49035;48.812;11.762;2023-11-21T00:26:25;6.10;99.90
22161;DHT22;49035;48.812;11.762;2023-11-21T00:28:51;6.10;99.90
22161;DHT22;49035;48.812;11.762;2023-11-21T00:31:16;6.10;99.90
22161;DHT22;49035;48.812;11.762;2023-11-21T00:33:42;6.10;99.90
22161;DHT22;49035;48.812;11.762;2023-11-21T00:36:08;6.10;99.90
22161;DHT22;49035;48.812;11.762;2023-11-21T00:38:36;6.10;99.90
22161;DHT22;49035;48.812;11.762;2023-11-21T00:41:01;6.10;99.90
22161;DHT22;49035;48.812;11.762;2023-11-21T00:43:28;6.10;99.90
22161;DHT22;49035;48.812;11.762;2023-11-21T00:45:53;6.10;99.90
22161;DHT22;49035;48.812;11.762;2023-11-21T00:48:19;6.10;99.90
22161;DHT22;49035;48.812;11.762;2023-11-21T00:50:45;6.10;99.90
22161;DHT22;49035;48.812;11.762;2023-11-21T00:53:10;6.10;99.90
22161;DHT22;49035;48.812;11.762;2023-11-21T00:55:37;6.10;99.90
22161;DHT22;49035;48.812;11.762;2023-11-21T00:58:04;6.10;99.90
22161;DHT22;49035;48.812;11.762;2023-11-21T01:00:34;6.10;99.90
22161;DHT22;49035;48.812;11.762;2023-11-21T01:03:00;6.10;99.90
22161;DHT22;49035;48.812;11.762;2023-11-21T01:05:26;6.10;99.90
22161;DHT22;49035;48.812;11.762;2023-11-21T01:07:52;6.10;99.90
22161;DHT22;49035;48.812;11.762;2023-11-21T01:10:18;6.10;99.90
22161;DHT22;49035;48.812;11.762;2023-11-21T01:12:43;6.10;99.90
22161;DHT22;49035;48.812;11.762;2023-11-21T01:15:09;6.10;99.90
22161;DHT22;49035;48.812;11.762;2023-11-21T01:17:37;6.20;99.90
22161;DHT22;49035;48.812;11.762;2023-11-21T01:20:04;6.10;99.90
22161;DHT22;49035;48.812;11.762;2023-11-21T01:22:36;6.10;99.90
22161;DHT22;49035;48.812;11.762;2023-11-21T01:25:02;6.10;99.90
22161;DHT22;49035;48.812;11.762;2023-11-21T01:27:32;6.10;99.90
22161;DHT22;49035;48.812;11.762;2023-11-21T01:29:57;6.10;99.90
22161;DHT22;49035;48.812;11.762;2023-11-21T01:32:23;6.10;99.90
22161;DHT22;49035;48.812;11.762;2023-11-21T01:34:50;6.10;99.90
22161;DHT22;49035;48.812;11.762;2023-11-21T01:37:16;6.10;99.90
22161;DHT22;49035;48.812;11.762;2023-11-21T01:39:43;6.10;99.90
22161;DHT22;49035;48.812;11.762;2023-11-21T01:42:10;6.10;99.90
22161;DHT22;49035;48.812;11.762;2023-11-21T01:44:38;6.10;99.90
22161;DHT22;49035;48.812;11.762;2023-11-21T01:47:07;6.10;99.90
22161;DHT22;49035;48.812;11.762;2023-11-21T01:49:33;6.10;99.90
22161;DHT22;49035;48.812;11.762;2023-11-21T01:52:00;6.10;99.90
22161;DHT22;49035;48.812;11.762;2023-11-21T01:54:25;6.20;99.90
22161;DHT22;49035;48.812;11.762;2023-11-21T01:56:51;6.30;99.90
22161;DHT22;49035;48.812;11.762;2023-11-21T01:59:20;6.20;99.90
22161;DHT22;49035;48.812;11.762;2023-11-21T02:01:49;6.20;99.90
22161;DHT22;49035;48.812;11.762;2023-11-21T02:04:19;6.10;99.90
22161;DHT22;49035;48.812;11.762;2023-11-21T02:06:46;6.10;99.90
22161;DHT22;49035;48.812;11.762;2023-11-21T02:09:12;6.10;99.90
22161;DHT22;49035;48.812;11.762;2023-11-21T02:11:40;6.10;99.90
22161;DHT22;49035;48.812;11.762;2023-11-21T02:14:06;6.10;99.90
22161;DHT22;49035;48.812;11.762;2023-11-21T02:16:34;6.00;99.90
22161;DHT22;49035;48.812;11.762;2023-11-21T02:19:01;6.00;99.90
22161;DHT22;49035;48.812;11.762;2023-11-21T02:21:28;6.00;99.90
22161;DHT22;49035;48.812;11.762;2023-11-21T02:23:55;6.10;99.90
22161;DHT22;49035;48.812;11.762;2023-11-21T02:26:21;6.10;99.90
22161;DHT22;49035;48.812;11.762;2023-11-21T02:28:46;6.10;99.90
22161;DHT22;49035;48.812;11.762;2023-11-21T02:31:13;6.10;99.90
22161;DHT22;49035;48.812;11.762;2023-11-21T02:33:38;6.10;99.90
22161;DHT22;49035;48.812;11.762;2023-11-21T02:36:04;6.10;99.90
22161;DHT22;49035;48.812;11.762;2023-11-21T02:38:31;6.10;99.90
22161;DHT22;49035;48.812;11.762;2023-11-21T02:40:57;6.10;99.90
22161;DHT22;49035;48.812;11.762;2023-11-21T02:43:24;6.10;99.90
22161;DHT22;49035;48.812;11.762;2023-11-21T02:45:50;6.10;99.90
22161;DHT22;49035;48.812;11.762;2023-11-21T02:48:15;6.00;99.90
22161;DHT22;49035;48.812;11.762;2023-11-21T02:50:41;6.00;99.90
22161;DHT22;49035;48.812;11.762;2023-11-21T02:53:08;6.00;99.90
22161;DHT22;49035;48.812;11.762;2023-11-21T02:55:36;5.90;99.90
22161;DHT22;49035;48.812;11.762;2023-11-21T02:58:02;5.90;99.90
22161;DHT22;49035;48.812;11.762;2023-11-21T03:00:29;5.80;99.90
22161;DHT22;49035;48.812;11.762;2023-11-21T03:02:55;5.90;99.90
22161;DHT22;49035;48.812;11.762;2023-11-21T03:05:21;5.90;99.90
22161;DHT22;49035;48.812;11.762;2023-11-21T03:07:47;6.10;99.90
22161;DHT22;49035;48.812;11.762;2023-11-21T03:10:12;6.10;99.90
22161;DHT22;49035;48.812;11.762;2023-11-21T03:12:38;6.10;99.90
22161;DHT22;49035;48.812;11.762;2023-11-21T03:15:08;6.10;99.90
22161;DHT22;49035;48.812;11.762;2023-11-21T03:17:36;6.10;99.90
22161;DHT22;49035;48.812;11.762;2023-11-21T03:20:02;6.10;99.90
22161;DHT22;49035;48.812;11.762;2023-11-21T03:22:29;6.10;99.90
22161;DHT22;49035;48.812;11.762;2023-11-21T03:24:54;6.00;99.90
22161;DHT22;49035;48.812;11.762;2023-11-21T03:27:20;6.00;99.90
22161;DHT22;49035;48.812;11.762;2023-11-21T03:29:46;5.90;99.90
22161;DHT22;49035;48.812;11.762;2023-11-21T03:32:12;5.90;99.90
22161;DHT22;49035;48.812;11.762;2023-11-21T03:34:56;5.90;99.90
22161;DHT22;49035;48.812;11.762;2023-11-21T03:37:22;5.80;99.90
22161;DHT22;49035;48.812;11.762;2023-11-21T03:39:47;5.80;99.90
22161;DHT22;49035;48.812;11.762;2023-11-21T03:42:13;5.90;99.90
22161;DHT22;49035;48.812;11.762;2023-11-21T03:44:39;5.90;99.90
22161;DHT22;49035;48.812;11.762;2023-11-21T03:47:04;6.00;99.90
22161;DHT22;49035;48.812;11.762;2023-11-21T03:49:30;6.00;99.90
22161;DHT22;49035;48.812;11.762;2023-11-21T03:51:56;6.00;99.90
22161;DHT22;49035;48.812;11.762;2023-11-21T03:54:22;6.00;99.90
22161;DHT22;49035;48.812;11.762;2023-11-21T03:56:47;6.10;99.90
22161;DHT22;49035;48.812;11.762;2023-11-21T03:59:13;6.10;99.90
22161;DHT22;49035;48.812;11.762;2023-11-21T04:01:38;6.10;99.90
22161;DHT22;49035;48.812;11.762;2023-11-21T04:04:04;6.20;99.90
22161;DHT22;49035;48.812;11.762;2023-11-21T04:06:30;6.20;99.90
22161;DHT22;49035;48.812;11.762;2023-11-21T04:08:55;6.10;99.90
22161;DHT22;49035;48.812;11.762;2023-11-21T04:11:21;6.10;99.90
22161;DHT22;49035;48.812;11.762;2023-11-21T04:13:47;6.10;99.90
22161;DHT22;49035;48.812;11.762;2023-11-21T04:16:12;6.20;99.90
22161;DHT22;49035;48.812;11.762;2023-11-21T04:18:38;6.20;99.90
22161;DHT22;49035;48.812;11.762;2023-11-21T04:21:08;6.20;99.90
22161;DHT22;49035;48.812;11.762;2023-11-21T04:23:34;6.20;99.90
22161;DHT22;49035;48.812;11.762;2023-11-21T04:26:00;6.20;99.90
22161;DHT22;49035;48.812;11.762;2023-11-21T04:28:27;6.20;99.90
22161;DHT22;49035;48.812;11.762;2023-11-21T04:30:53;6.20;99.90
22161;DHT22;49035;48.812;11.762;2023-11-21T04:33:18;6.20;99.90
22161;DHT22;49035;48.812;11.762;2023-11-21T04:35:44;6.20;99.90
22161;DHT22;49035;48.812;11.762;2023-11-21T04:38:10;6.20;99.90
22161;DHT22;49035;48.812;11.762;2023-11-21T04:40:35;6.20;99.90
22161;DHT22;49035;48.812;11.762;2023-11-21T04:43:01;6.20;99.90
22161;DHT22;49035;48.812;11.762;2023-11-21T04:45:27;6.20;99.90
22161;DHT22;49035;48.812;11.762;2023-11-21T04:47:52;6.20;99.90
22161;DHT22;49035;48.812;11.762;2023-11-21T04:50:18;6.20;99.90
22161;DHT22;49035;48.812;11.762;2023-11-21T04:52:44;6.20;99.90
22161;DHT22;49035;48.812;11.762;2023-11-21T04:55:10;6.20;99.90
22161;DHT22;49035;48.812;11.762;2023-11-21T04:57:36;6.20;99.90
22161;DHT22;49035;48.812;11.762;2023-11-21T05:00:03;6.30;99.90
22161;DHT22;49035;48.812;11.762;2023-11-21T05:02:31;6.30;99.90
22161;DHT22;49035;48.812;11.762;2023-11-21T05:04:59;6.30;99.90
22161;DHT22;49035;48.812;11.762;2023-11-21T05:07:25;6.30;99.90
22161;DHT22;49035;48.812;11.762;2023-11-21T05:09:55;6.30;99.90
22161;DHT22;49035;48.812;11.762;2023-11-21T05:12:24;6.30;99.90
22161;DHT22;49035;48.812;11.762;2023-11-21T05:14:51;6.40;99.90
22161;DHT22;49035;48.812;11.762;2023-11-21T05:17:16;6.40;99.90
22161;DHT22;49035;48.812;11.762;2023-11-21T05:19:42;6.40;99.90
22161;DHT22;49035;48.812;11.762;2023-11-21T05:22:08;6.40;99.90
22161;DHT22;49035;48.812;11.762;2023-11-21T05:24:34;6.40;99.90
22161;DHT22;49035;48.812;11.762;2023-11-21T05:27:00;6.40;99.90
22161;DHT22;49035;48.812;11.762;2023-11-21T05:29:25;6.30;99.90
22161;DHT22;49035;48.812;11.762;2023-11-21T05:31:51;6.30;99.90
22161;DHT22;49035;48.812;11.762;2023-11-21T05:34:18;6.20;99.90
22161;DHT22;49035;48.812;11.762;2023-11-21T05:36:44;6.10;99.90
22161;DHT22;49035;48.812;11.762;2023-11-21T05:39:11;6.10;99.90
22161;DHT22;49035;48.812;11.762;2023-11-21T05:41:37;6.00;99.90
22161;DHT22;49035;48.812;11.762;2023-11-21T05:44:02;5.90;99.90
22161;DHT22;49035;48.812;11.762;2023-11-21T05:46:28;5.90;99.90
22161;DHT22;49035;48.812;11.762;2023-11-21T05:48:54;5.80;99.90
22161;DHT22;49035;48.812;11.762;2023-11-21T05:51:20;5.80;99.90
22161;DHT22;49035;48.812;11.762;2023-11-21T05:53:45;5.80;99.90
22161;DHT22;49035;48.812;11.762;2023-11-21T05:56:12;5.80;99.90
22161;DHT22;49035;48.812;11.762;2023-11-21T05:58:39;5.90;99.90
22161;DHT22;49035;48.812;11.762;2023-11-21T06:01:06;5.90;99.90
22161;DHT22;49035;48.812;11.762;2023-11-21T06:03:38;5.90;99.90
22161;DHT22;49035;48.812;11.762;2023-11-21T06:06:03;6.00;99.90
22161;DHT22;49035;48.812;11.762;2023-11-21T06:08:30;6.00;99.90
22161;DHT22;49035;48.812;11.762;2023-11-21T06:10:55;6.10;99.90
22161;DHT22;49035;48.812;11.762;2023-11-21T06:13:21;6.10;99.90
22161;DHT22;49035;48.812;11.762;2023-11-21T06:15:50;6.20;99.90
22161;DHT22;49035;48.812;11.762;2023-11-21T06:18:16;6.20;99.90
22161;DHT22;49035;48.812;11.762;2023-11-21T06:20:45;6.20;99.90
22161;DHT22;49035;48.812;11.762;2023-11-21T06:23:10;6.20;99.90
22161;DHT22;49035;48.812;11.762;2023-11-21T06:25:36;6.20;99.90
22161;DHT22;49035;48.812;11.762;2023-11-21T06:28:02;6.20;99.90
22161;DHT22;49035;48.812;11.762;2023-11-21T06:30:28;6.20;99.90
22161;DHT22;49035;48.812;11.762;2023-11-21T06:32:54;6.20;99.90
22161;DHT22;49035;48.812;11.762;2023-11-21T06:35:20;6.20;99.90
22161;DHT22;49035;48.812;11.762;2023-11-21T06:37:46;6.20;99.90
22161;DHT22;49035;48.812;11.762;2023-11-21T06:40:14;6.20;99.90
22161;DHT22;49035;48.812;11.762;2023-11-21T06:42:40;6.30;99.90
22161;DHT22;49035;48.812;11.762;2023-11-21T06:45:07;6.30;99.90
22161;DHT22;49035;48.812;11.762;2023-11-21T06:47:33;6.40;99.90
22161;DHT22;49035;48.812;11.762;2023-11-21T06:49:59;6.50;99.90
22161;DHT22;49035;48.812;11.762;2023-11-21T06:52:25;6.50;99.90
22161;DHT22;49035;48.812;11.762;2023-11-21T06:54:51;6.60;99.90
22161;DHT22;49035;48.812;11.762;2023-11-21T06:57:16;6.70;99.90
22161;DHT22;49035;48.812;11.762;2023-11-21T06:59:42;6.70;99.90
22161;DHT22;49035;48.812;11.762;2023-11-21T07:02:08;6.80;99.90
22161;DHT22;49035;48.812;11.762;2023-11-21T07:04:35;6.90;99.90
22161;DHT22;49035;48.812;11.762;2023-11-21T07:07:04;7.00;99.90
22161;DHT22;49035;48.812;11.762;2023-11-21T07:09:32;7.00;99.90
22161;DHT22;49035;48.812;11.762;2023-11-21T07:11:57;7.10;99.90
22161;DHT22;49035;48.812;11.762;2023-11-21T07:14:23;7.10;99.90
22161;DHT22;49035;48.812;11.762;2023-11-21T07:16:49;7.00;99.90
22161;DHT22;49035;48.812;11.762;2023-11-21T07:19:14;7.00;99.90
22161;DHT22;49035;48.812;11.762;2023-11-21T07:21:41;7.00;99.90
22161;DHT22;49035;48.812;11.762;2023-11-21T07:24:07;7.00;99.90
22161;DHT22;49035;48.812;11.762;2023-11-21T07:26:34;7.00;99.90
22161;DHT22;49035;48.812;11.762;2023-11-21T07:29:01;7.00;99.90
22161;DHT22;49035;48.812;11.762;2023-11-21T07:31:28;7.00;99.90
22161;DHT22;49035;48.812;11.762;2023-11-21T07:33:54;7.20;99.90
22161;DHT22;49035;48.812;11.762;2023-11-21T07:36:22;7.20;99.90
22161;DHT22;49035;48.812;11.762;2023-11-21T07:38:48;7.20;99.90
22161;DHT22;49035;48.812;11.762;2023-11-21T07:41:14;7.20;99.90
22161;DHT22;49035;48.812;11.762;2023-11-21T07:43:43;7.20;99.90
22161;DHT22;49035;48.812;11.762;2023-11-21T07:46:09;7.20;99.90
22161;DHT22;49035;48.812;11.762;2023-11-21T07:48:35;7.20;99.90
22161;DHT22;49035;48.812;11.762;2023-11-21T07:51:03;7.20;99.90
22161;DHT22;49035;48.812;11.762;2023-11-21T07:53:29;7.30;99.90
22161;DHT22;49035;48.812;11.762;2023-11-21T07:55:56;7.40;99.90
22161;DHT22;49035;48.812;11.762;2023-11-21T07:58:22;7.40;99.90
22161;DHT22;49035;48.812;11.762;2023-11-21T08:00:49;7.60;99.90
22161;DHT22;49035;48.812;11.762;2023-11-21T08:03:15;7.70;99.90
22161;DHT22;49035;48.812;11.762;2023-11-21T08:05:41;7.80;99.90
22161;DHT22;49035;48.812;11.762;2023-11-21T08:08:07;7.90;99.90
22161;DHT22;49035;48.812;11.762;2023-11-21T08:10:33;7.90;99.90
22161;DHT22;49035;48.812;11.762;2023-11-21T08:12:59;7.90;99.90
22161;DHT22;49035;48.812;11.762;2023-11-21T08:15:24;7.80;99.90
22161;DHT22;49035;48.812;11.762;2023-11-21T08:17:50;7.80;99.90
22161;DHT22;49035;48.812;11.762;2023-11-21T08:20:16;7.80;99.90
22161;DHT22;49035;48.812;11.762;2023-11-21T08:22:43;7.80;99.90
22161;DHT22;49035;48.812;11.762;2023-11-21T08:25:10;7.90;99.90
22161;DHT22;49035;48.812;11.762;2023-11-21T08:27:35;7.90;99.90
22161;DHT22;49035;48.812;11.762;2023-11-21T08:30:02;8.00;99.90
22161;DHT22;49035;48.812;11.762;2023-11-21T08:32:29;8.10;99.90
22161;DHT22;49035;48.812;11.762;2023-11-21T08:34:57;8.10;99.90
22161;DHT22;49035;48.812;11.762;2023-11-21T08:37:23;8.00;99.90
22161;DHT22;49035;48.812;11.762;2023-11-21T08:39:49;8.00;99.90
22161;DHT22;49035;48.812;11.762;2023-11-21T08:42:15;8.00;99.90
22161;DHT22;49035;48.812;11.762;2023-11-21T08:44:41;8.10;99.90
22161;DHT22;49035;48.812;11.762;2023-11-21T08:47:07;8.10;99.90
22161;DHT22;49035;48.812;11.762;2023-11-21T08:49:32;8.00;99.90
22161;DHT22;49035;48.812;11.762;2023-11-21T08:51:58;8.10;99.90
22161;DHT22;49035;48.812;11.762;2023-11-21T08:54:25;8.10;99.90
22161;DHT22;49035;48.812;11.762;2023-11-21T08:56:54;8.10;99.90
22161;DHT22;49035;48.812;11.762;2023-11-21T08:59:20;8.20;99.90
22161;DHT22;49035;48.812;11.762;2023-11-21T09:01:47;8.10;99.90
22161;DHT22;49035;48.812;11.762;2023-11-21T09:04:12;7.90;99.90
22161;DHT22;49035;48.812;11.762;2023-11-21T09:06:39;7.80;99.90
22161;DHT22;49035;48.812;11.762;2023-11-21T09:09:05;7.80;99.90
22161;DHT22;49035;48.812;11.762;2023-11-21T09:11:32;7.60;99.90
22161;DHT22;49035;48.812;11.762;2023-11-21T09:13:59;7.60;99.90
22161;DHT22;49035;48.812;11.762;2023-11-21T09:16:25;7.60;99.90
22161;DHT22;49035;48.812;11.762;2023-11-21T09:18:51;7.60;99.90
22161;DHT22;49035;48.812;11.762;2023-11-21T09:21:16;7.60;99.90
22161;DHT22;49035;48.812;11.762;2023-11-21T09:23:44;7.60;99.90
22161;DHT22;49035;48.812;11.762;2023-11-21T09:26:10;7.60;99.90
22161;DHT22;49035;48.812;11.762;2023-11-21T09:28:35;7.70;99.90
22161;DHT22;49035;48.812;11.762;2023-11-21T09:31:03;7.80;99.90
22161;DHT22;49035;48.812;11.762;2023-11-21T09:33:30;7.90;99.90
22161;DHT22;49035;48.812;11.762;2023-11-21T09:35:57;8.00;99.90
22161;DHT22;49035;48.812;11.762;2023-11-21T09:38:23;8.00;99.90
22161;DHT22;49035;48.812;11.762;2023-11-21T09:40:49;8.20;99.90
22161;DHT22;49035;48.812;11.762;2023-11-21T09:43:18;8.50;99.90
22161;DHT22;49035;48.812;11.762;2023-11-21T09:45:50;8.50;99.90
22161;DHT22;49035;48.812;11.762;2023-11-21T09:48:20;8.50;99.90
22161;DHT22;49035;48.812;11.762;2023-11-21T09:50:47;8.40;99.90
22161;DHT22;49035;48.812;11.762;2023-11-21T09:53:17;8.50;99.90
22161;DHT22;49035;48.812;11.762;2023-11-21T09:55:46;8.50;99.90
22161;DHT22;49035;48.812;11.762;2023-11-21T09:58:13;8.50;99.90
22161;DHT22;49035;48.812;11.762;2023-11-21T10:00:47;8.50;99.90
22161;DHT22;49035;48.812;11.762;2023-11-21T10:03:13;8.70;99.90
22161;DHT22;49035;48.812;11.762;2023-11-21T10:05:40;8.80;99.90
22161;DHT22;49035;48.812;11.762;2023-11-21T10:08:11;8.90;99.90
22161;DHT22;49035;48.812;11.762;2023-11-21T10:10:38;9.00;99.90
22161;DHT22;49035;48.812;11.762;2023-11-21T10:13:08;9.10;99.90
22161;DHT22;49035;48.812;11.762;2023-11-21T10:15:36;9.20;99.90
22161;DHT22;49035;48.812;11.762;2023-11-21T10:18:07;9.30;99.90
22161;DHT22;49035;48.812;11.762;2023-11-21T10:20:33;9.50;99.90
22161;DHT22;49035;48.812;11.762;2023-11-21T10:23:00;9.50;99.90
22161;DHT22;49035;48.812;11.762;2023-11-21T10:25:27;9.40;99.90
22161;DHT22;49035;48.812;11.762;2023-11-21T10:27:58;9.50;99.90
22161;DHT22;49035;48.812;11.762;2023-11-21T10:30:35;9.50;99.90
22161;DHT22;49035;48.812;11.762;2023-11-21T10:33:06;9.40;99.90
22161;DHT22;49035;48.812;11.762;2023-11-21T10:35:52;9.40;99.90
22161;DHT22;49035;48.812;11.762;2023-11-21T10:38:20;9.30;99.90
22161;DHT22;49035;48.812;11.762;2023-11-21T10:40:51;9.40;99.90
22161;DHT22;49035;48.812;11.762;2023-11-21T10:43:18;9.50;99.90
22161;DHT22;49035;48.812;11.762;2023-11-21T10:45:44;9.70;99.90
22161;DHT22;49035;48.812;11.762;2023-11-21T10:48:11;9.60;99.90
22161;DHT22;49035;48.812;11.762;2023-11-21T10:50:39;9.60;99.90
22161;DHT22;49035;48.812;11.762;2023-11-21T10:53:05;9.70;99.90
22161;DHT22;49035;48.812;11.762;2023-11-21T10:55:32;9.90;99.90
22161;DHT22;49035;48.812;11.762;2023-11-21T10:58:00;10.00;99.90
22161;DHT22;49035;48.812;11.762;2023-11-21T11:00:27;10.00;99.90
22161;DHT22;49035;48.812;11.762;2023-11-21T11:02:54;9.90;99.90
22161;DHT22;49035;48.812;11.762;2023-11-21T11:05:21;9.70;99.90
22161;DHT22;49035;48.812;11.762;2023-11-21T11:07:51;9.40;99.90
22161;DHT22;49035;48.812;11.762;2023-11-21T11:10:22;9.40;99.90
22161;DHT22;49035;48.812;11.762;2023-11-21T11:12:51;9.50;99.90
22161;DHT22;49035;48.812;11.762;2023-11-21T11:15:18;9.70;99.90
22161;DHT22;49035;48.812;11.762;2023-11-21T11:17:45;9.50;99.90
22161;DHT22;49035;48.812;11.762;2023-11-21T11:20:13;9.60;99.90
22161;DHT22;49035;48.812;11.762;2023-11-21T11:25:51;9.90;99.90
22161;DHT22;49035;48.812;11.762;2023-11-21T11:31:15;10.20;99.90
22161;DHT22;49035;48.812;11.762;2023-11-21T11:36:50;10.00;99.90
22161;DHT22;49035;48.812;11.762;2023-11-21T11:39:30;9.80;99.90
22161;DHT22;49035;48.812;11.762;2023-11-21T11:41:57;9.60;99.90
22161;DHT22;49035;48.812;11.762;2023-11-21T11:47:22;9.30;99.90
22161;DHT22;49035;48.812;11.762;2023-11-21T11:50:01;9.10;99.90
22161;DHT22;49035;48.812;11.762;2023-11-21T11:52:42;9.30;99.90
22161;DHT22;49035;48.812;11.762;2023-11-21T11:55:10;9.50;99.90
22161;DHT22;49035;48.812;11.762;2023-11-21T11:57:36;9.50;99.90
22161;DHT22;49035;48.812;11.762;2023-11-21T12:00:22;9.40;99.90
22161;DHT22;49035;48.812;11.762;2023-11-21T12:03:01;9.20;99.90
22161;DHT22;49035;48.812;11.762;2023-11-21T12:05:29;9.30;99.90
22161;DHT22;49035;48.812;11.762;2023-11-21T12:08:03;9.60;99.90
22161;DHT22;49035;48.812;11.762;2023-11-21T12:10:30;9.80;99.90
22161;DHT22;49035;48.812;11.762;2023-11-21T12:13:01;9.90;99.90
22161;DHT22;49035;48.812;11.762;2023-11-21T12:15:27;10.00;99.90
22161;DHT22;49035;48.812;11.762;2023-11-21T12:17:57;10.00;99.90
22161;DHT22;49035;48.812;11.762;2023-11-21T12:20:25;10.20;99.90
22161;DHT22;49035;48.812;11.762;2023-11-21T12:22:53;10.30;99.90
22161;DHT22;49035;48.812;11.762;2023-11-21T12:25:21;10.10;99.90
22161;DHT22;49035;48.812;11.762;2023-11-21T12:27:48;10.10;99.90
22161;DHT22;49035;48.812;11.762;2023-11-21T12:30:18;10.10;99.90
22161;DHT22;49035;48.812;11.762;2023-11-21T12:32:48;10.30;99.90
22161;DHT22;49035;48.812;11.762;2023-11-21T12:35:14;10.30;99.90
22161;DHT22;49035;48.812;11.762;2023-11-21T12:37:41;10.10;99.90
22161;DHT22;49035;48.812;11.762;2023-11-21T12:40:10;9.80;99.90
22161;DHT22;49035;48.812;11.762;2023-11-21T12:42:47;9.90;99.90
22161;DHT22;49035;48.812;11.762;2023-11-21T12:50:30;9.80;99.90
22161;DHT22;49035;48.812;11.762;2023-11-21T12:53:08;9.60;99.90
22161;DHT22;49035;48.812;11.762;2023-11-21T12:55:34;9.50;99.90
22161;DHT22;49035;48.812;11.762;2023-11-21T12:58:08;9.70;99.90
22161;DHT22;49035;48.812;11.762;2023-11-21T13:00:39;9.60;99.90
22161;DHT22;49035;48.812;11.762;2023-11-21T13:03:08;9.70;99.90
22161;DHT22;49035;48.812;11.762;2023-11-21T13:05:38;9.80;99.90
22161;DHT22;49035;48.812;11.762;2023-11-21T13:08:06;10.10;99.90
22161;DHT22;49035;48.812;11.762;2023-11-21T13:10:39;10.10;99.90
22161;DHT22;49035;48.812;11.762;2023-11-21T13:13:07;10.20;99.90
22161;DHT22;49035;48.812;11.762;2023-11-21T13:15:48;10.20;99.90
22161;DHT22;49035;48.812;11.762;2023-11-21T13:18:14;10.10;99.90
22161;DHT22;49035;48.812;11.762;2023-11-21T13:20:41;10.00;99.90
22161;DHT22;49035;48.812;11.762;2023-11-21T13:23:09;9.80;99.90
22161;DHT22;49035;48.812;11.762;2023-11-21T13:25:37;9.60;99.90
22161;DHT22;49035;48.812;11.762;2023-11-21T13:28:04;9.60;99.90
22161;DHT22;49035;48.812;11.762;2023-11-21T13:30:30;9.70;99.90
22161;DHT22;49035;48.812;11.762;2023-11-21T13:33:03;9.70;99.90
22161;DHT22;49035;48.812;11.762;2023-11-21T13:35:32;9.60;99.90
22161;DHT22;49035;48.812;11.762;2023-11-21T13:38:14;9.40;99.90
22161;DHT22;49035;48.812;11.762;2023-11-21T13:40:41;9.60;99.90
22161;DHT22;49035;48.812;11.762;2023-11-21T13:43:17;9.70;99.90
22161;DHT22;49035;48.812;11.762;2023-11-21T13:45:46;9.70;99.90
22161;DHT22;49035;48.812;11.762;2023-11-21T13:48:13;9.70;99.90
22161;DHT22;49035;48.812;11.762;2023-11-21T13:50:43;9.50;99.90
22161;DHT22;49035;48.812;11.762;2023-11-21T13:53:23;9.20;99.90
22161;DHT22;49035;48.812;11.762;2023-11-21T13:55:49;9.10;99.90
22161;DHT22;49035;48.812;11.762;2023-11-21T13:58:17;9.20;99.90
22161;DHT22;49035;48.812;11.762;2023-11-21T14:00:50;9.20;99.90
22161;DHT22;49035;48.812;11.762;2023-11-21T14:03:24;9.20;99.90
22161;DHT22;49035;48.812;11.762;2023-11-21T14:05:58;9.10;99.90
22161;DHT22;49035;48.812;11.762;2023-11-21T14:08:26;9.10;99.90
22161;DHT22;49035;48.812;11.762;2023-11-21T14:10:54;9.30;99.90
22161;DHT22;49035;48.812;11.762;2023-11-21T14:13:25;9.40;99.90
22161;DHT22;49035;48.812;11.762;2023-11-21T14:15:51;9.40;99.90
22161;DHT22;49035;48.812;11.762;2023-11-21T14:18:23;9.20;99.90
22161;DHT22;49035;48.812;11.762;2023-11-21T14:20:57;9.10;99.90
22161;DHT22;49035;48.812;11.762;2023-11-21T14:23:22;9.10;99.90
22161;DHT22;49035;48.812;11.762;2023-11-21T14:25:49;9.10;99.90
22161;DHT22;49035;48.812;11.762;2023-11-21T14:28:15;9.10;99.90
22161;DHT22;49035;48.812;11.762;2023-11-21T14:30:41;9.00;99.90
22161;DHT22;49035;48.812;11.762;2023-11-21T14:33:08;9.00;99.90
22161;DHT22;49035;48.812;11.762;2023-11-21T14:35:35;9.00;99.90
22161;DHT22;49035;48.812;11.762;2023-11-21T14:38:01;9.00;99.90
22161;DHT22;49035;48.812;11.762;2023-11-21T14:40:30;9.10;99.90
22161;DHT22;49035;48.812;11.762;2023-11-21T14:43:02;9.00;99.90
22161;DHT22;49035;48.812;11.762;2023-11-21T14:45:31;8.80;99.90
22161;DHT22;49035;48.812;11.762;2023-11-21T14:47:57;8.90;99.90
22161;DHT22;49035;48.812;11.762;2023-11-21T14:50:35;8.90;99.90
22161;DHT22;49035;48.812;11.762;2023-11-21T14:53:29;8.80;99.90
22161;DHT22;49035;48.812;11.762;2023-11-21T14:56:09;8.80;99.90
22161;DHT22;49035;48.812;11.762;2023-11-21T14:58:36;8.80;99.90
22161;DHT22;49035;48.812;11.762;2023-11-21T15:01:04;8.70;99.90
22161;DHT22;49035;48.812;11.762;2023-11-21T15:03:30;8.70;99.90
22161;DHT22;49035;48.812;11.762;2023-11-21T15:05:59;8.60;99.90
22161;DHT22;49035;48.812;11.762;2023-11-21T15:08:54;8.50;99.90
22161;DHT22;49035;48.812;11.762;2023-11-21T15:11:32;8.40;99.90
22161;DHT22;49035;48.812;11.762;2023-11-21T15:13:58;8.30;99.90
22161;DHT22;49035;48.812;11.762;2023-11-21T15:16:24;8.20;99.90
22161;DHT22;49035;48.812;11.762;2023-11-21T15:18:52;8.10;99.90
22161;DHT22;49035;48.812;11.762;2023-11-21T15:21:19;8.00;99.90
22161;DHT22;49035;48.812;11.762;2023-11-21T15:23:46;7.90;99.90
22161;DHT22;49035;48.812;11.762;2023-11-21T15:26:12;7.90;99.90
22161;DHT22;49035;48.812;11.762;2023-11-21T15:28:38;7.90;99.90
22161;DHT22;49035;48.812;11.762;2023-11-21T15:31:03;7.90;99.90
22161;DHT22;49035;48.812;11.762;2023-11-21T15:33:30;8.00;99.90
22161;DHT22;49035;48.812;11.762;2023-11-21T15:35:56;8.00;99.90
22161;DHT22;49035;48.812;11.762;2023-11-21T15:38:21;7.90;99.90
22161;DHT22;49035;48.812;11.762;2023-11-21T15:40:47;7.80;99.90
22161;DHT22;49035;48.812;11.762;2023-11-21T15:43:13;7.70;99.90
22161;DHT22;49035;48.812;11.762;2023-11-21T15:45:39;7.70;99.90
22161;DHT22;49035;48.812;11.762;2023-11-21T15:48:05;7.60;99.90
22161;DHT22;49035;48.812;11.762;2023-11-21T15:50:31;7.70;99.90